sensor_id;sensor_type;location;lat;lon;timestamp;pressure;altitude;pressure_sealevel;temperature;humidity
37904;BME280;23738;50.422;18.758;2023-05-16T00:00:28;97906.88;;;9.99;75.77
37904;BME280;23738;50.422;18.758;2023-05-16T00:03:20;97904.03;;;9.93;75.71
37904;BME280;23738;50.422;18.758;2023-05-16T00:05:47;97909.06;;;9.91;75.92
37904;BME280;23738;50.422;18.758;2023-05-16T00:08:16;97909.39;;;9.92;76.16
37904;BME280;23738;50.422;18.758;2023-05-16T00:10:58;97914.27;;;9.93;76.22
37904;BME280;23738;50.422;18.758;2023-05-16T00:13:46;97918.00;;;9.91;76.22
37904;BME280;23738;50.422;18.758;2023-05-16T00:16:40;97924.08;;;9.84;76.02
37904;BME280;23738;50.422;18.758;2023-05-16T00:19:28;97923.17;;;9.79;76.04
37904;BME280;23738;50.422;18.758;2023-05-16T00:22:10;97917.17;;;9.76;76.04
37904;BME280;23738;50.422;18.758;2023-05-16T00:24:58;97916.95;;;9.76;76.04
37904;BME280;23738;50.422;18.758;2023-05-16T00:27:25;97913.32;;;9.77;76.39
37904;BME280;23738;50.422;18.758;2023-05-16T00:29:52;97914.48;;;9.78;76.34
37904;BME280;23738;50.422;18.758;2023-05-16T00:32:35;97912.95;;;9.75;76.47
37904;BME280;23738;50.422;18.758;2023-05-16T00:35:22;97913.17;;;9.73;76.49
37904;BME280;23738;50.422;18.758;2023-05-16T00:38:06;97911.41;;;9.73;76.41
37904;BME280;23738;50.422;18.758;2023-05-16T00:40:33;97913.24;;;9.73;76.47
37904;BME280;23738;50.422;18.758;2023-05-16T00:43:16;97909.19;;;9.75;76.79
37904;BME280;23738;50.422;18.758;2023-05-16T00:45:58;97910.88;;;9.75;76.70
37904;BME280;23738;50.422;18.758;2023-05-16T00:48:30;97911.45;;;9.75;76.90
37904;BME280;23738;50.422;18.758;2023-05-16T00:50:57;97912.80;;;9.73;76.66
37904;BME280;23738;50.422;18.758;2023-05-16T00:53:25;97911.84;;;9.68;76.80
37904;BME280;23738;50.422;18.758;2023-05-16T00:55:52;97913.23;;;9.69;76.84
37904;BME280;23738;50.422;18.758;2023-05-16T00:58:21;97912.28;;;9.70;76.92
37904;BME280;23738;50.422;18.758;2023-05-16T01:00:49;97910.95;;;9.71;76.91
37904;BME280;23738;50.422;18.758;2023-05-16T01:03:16;97910.91;;;9.69;76.91
37904;BME280;23738;50.422;18.758;2023-05-16T01:05:44;97908.73;;;9.67;76.96
37904;BME280;23738;50.422;18.758;2023-05-16T01:08:11;97913.37;;;9.64;76.90
37904;BME280;23738;50.422;18.758;2023-05-16T01:10:52;97908.98;;;9.59;76.83
37904;BME280;23738;50.422;18.758;2023-05-16T01:13:32;97906.42;;;9.55;76.80
37904;BME280;23738;50.422;18.758;2023-05-16T01:16:08;97903.21;;;9.53;76.83
37904;BME280;23738;50.422;18.758;2023-05-16T01:18:44;97906.98;;;9.54;77.02
37904;BME280;23738;50.422;18.758;2023-05-16T01:21:18;97907.03;;;9.56;77.06
37904;BME280;23738;50.422;18.758;2023-05-16T01:23:55;97908.20;;;9.54;77.02
37904;BME280;23738;50.422;18.758;2023-05-16T01:26:27;97917.24;;;9.50;77.03
37904;BME280;23738;50.422;18.758;2023-05-16T01:28:56;97920.31;;;9.49;77.07
37904;BME280;23738;50.422;18.758;2023-05-16T01:31:23;97924.23;;;9.50;77.15
37904;BME280;23738;50.422;18.758;2023-05-16T01:33:52;97921.59;;;9.54;77.26
37904;BME280;23738;50.422;18.758;2023-05-16T01:36:24;97921.80;;;9.55;77.32
37904;BME280;23738;50.422;18.758;2023-05-16T01:39:00;97912.58;;;9.52;77.11
37904;BME280;23738;50.422;18.758;2023-05-16T01:41:34;97909.80;;;9.48;77.20
37904;BME280;23738;50.422;18.758;2023-05-16T01:44:15;97912.52;;;9.44;77.33
37904;BME280;23738;50.422;18.758;2023-05-16T01:46:46;97912.70;;;9.36;77.14
37904;BME280;23738;50.422;18.758;2023-05-16T01:49:19;97917.05;;;9.34;77.23
37904;BME280;23738;50.422;18.758;2023-05-16T01:51:54;97916.05;;;9.34;77.34
37904;BME280;23738;50.422;18.758;2023-05-16T01:54:24;97919.17;;;9.33;77.25
37904;BME280;23738;50.422;18.758;2023-05-16T01:56:55;97919.95;;;9.32;77.38
37904;BME280;23738;50.422;18.758;2023-05-16T01:59:23;97920.67;;;9.33;77.41
37904;BME280;23738;50.422;18.758;2023-05-16T02:01:53;97919.45;;;9.31;77.38
37904;BME280;23738;50.422;18.758;2023-05-16T02:04:23;97918.20;;;9.27;77.42
37904;BME280;23738;50.422;18.758;2023-05-16T02:06:51;97918.86;;;9.22;77.51
37904;BME280;23738;50.422;18.758;2023-05-16T02:09:18;97920.16;;;9.21;77.54
37904;BME280;23738;50.422;18.758;2023-05-16T02:11:45;97920.28;;;9.23;77.63
37904;BME280;23738;50.422;18.758;2023-05-16T02:14:13;97923.65;;;9.24;77.70
37904;BME280;23738;50.422;18.758;2023-05-16T02:16:40;97922.67;;;9.25;77.80
37904;BME280;23738;50.422;18.758;2023-05-16T02:19:08;97921.98;;;9.23;77.77
37904;BME280;23738;50.422;18.758;2023-05-16T02:21:37;97924.45;;;9.20;77.67
37904;BME280;23738;50.422;18.758;2023-05-16T02:24:05;97929.36;;;9.17;77.77
37904;BME280;23738;50.422;18.758;2023-05-16T02:26:33;97926.66;;;9.12;77.92
37904;BME280;23738;50.422;18.758;2023-05-16T02:29:00;97928.06;;;9.19;78.03
37904;BME280;23738;50.422;18.758;2023-05-16T02:31:29;97928.14;;;9.20;78.06
37904;BME280;23738;50.422;18.758;2023-05-16T02:33:57;97925.95;;;9.21;78.09
37904;BME280;23738;50.422;18.758;2023-05-16T02:36:24;97928.76;;;9.25;78.25
37904;BME280;23738;50.422;18.758;2023-05-16T02:38:52;97932.73;;;9.24;78.13
37904;BME280;23738;50.422;18.758;2023-05-16T02:41:19;97927.05;;;9.18;78.19
37904;BME280;23738;50.422;18.758;2023-05-16T02:43:47;97928.08;;;9.16;78.01
37904;BME280;23738;50.422;18.758;2023-05-16T02:46:22;97929.42;;;9.14;78.15
37904;BME280;23738;50.422;18.758;2023-05-16T02:48:50;97932.34;;;9.13;78.09
37904;BME280;23738;50.422;18.758;2023-05-16T02:51:18;97931.27;;;9.09;78.07
37904;BME280;23738;50.422;18.758;2023-05-16T02:53:46;97932.34;;;9.03;77.96
37904;BME280;23738;50.422;18.758;2023-05-16T02:56:13;97932.86;;;8.96;78.05
37904;BME280;23738;50.422;18.758;2023-05-16T02:58:40;97929.79;;;8.94;78.25
37904;BME280;23738;50.422;18.758;2023-05-16T03:01:08;97930.58;;;8.91;78.00
37904;BME280;23738;50.422;18.758;2023-05-16T03:03:35;97933.80;;;8.86;78.05
37904;BME280;23738;50.422;18.758;2023-05-16T03:06:03;97943.40;;;8.90;78.29
37904;BME280;23738;50.422;18.758;2023-05-16T03:08:35;97949.77;;;8.93;78.37
37904;BME280;23738;50.422;18.758;2023-05-16T03:11:03;97949.96;;;8.94;78.33
37904;BME280;23738;50.422;18.758;2023-05-16T03:13:30;97944.48;;;8.92;78.37
37904;BME280;23738;50.422;18.758;2023-05-16T03:15:57;97944.17;;;8.88;78.23
37904;BME280;23738;50.422;18.758;2023-05-16T03:18:26;97940.41;;;8.79;78.09
37904;BME280;23738;50.422;18.758;2023-05-16T03:20:54;97946.27;;;8.78;78.27
37904;BME280;23738;50.422;18.758;2023-05-16T03:23:21;97949.40;;;8.80;78.39
37904;BME280;23738;50.422;18.758;2023-05-16T03:25:49;97948.72;;;8.87;78.61
37904;BME280;23738;50.422;18.758;2023-05-16T03:28:16;97945.48;;;8.93;78.64
37904;BME280;23738;50.422;18.758;2023-05-16T03:30:44;97945.23;;;8.94;78.81
37904;BME280;23738;50.422;18.758;2023-05-16T03:33:13;97949.49;;;8.94;78.74
37904;BME280;23738;50.422;18.758;2023-05-16T03:35:40;97954.06;;;8.94;78.87
37904;BME280;23738;50.422;18.758;2023-05-16T03:38:08;97961.13;;;8.99;78.97
37904;BME280;23738;50.422;18.758;2023-05-16T03:40:36;97968.42;;;9.07;79.15
37904;BME280;23738;50.422;18.758;2023-05-16T03:43:03;97969.15;;;9.15;79.32
37904;BME280;23738;50.422;18.758;2023-05-16T03:45:31;97971.08;;;9.20;79.49
37904;BME280;23738;50.422;18.758;2023-05-16T03:47:58;97970.50;;;9.25;79.58
37904;BME280;23738;50.422;18.758;2023-05-16T03:50:25;97971.95;;;9.27;79.46
37904;BME280;23738;50.422;18.758;2023-05-16T03:52:53;97978.70;;;9.28;79.49
37904;BME280;23738;50.422;18.758;2023-05-16T03:55:20;97981.30;;;9.32;79.59
37904;BME280;23738;50.422;18.758;2023-05-16T03:57:48;97979.22;;;9.37;79.72
37904;BME280;23738;50.422;18.758;2023-05-16T04:00:16;97982.73;;;9.45;79.87
37904;BME280;23738;50.422;18.758;2023-05-16T04:02:44;97980.81;;;9.52;80.09
37904;BME280;23738;50.422;18.758;2023-05-16T04:05:11;97980.52;;;9.61;80.24
37904;BME280;23738;50.422;18.758;2023-05-16T04:07:39;97982.84;;;9.67;80.23
37904;BME280;23738;50.422;18.758;2023-05-16T04:10:08;97977.77;;;9.70;80.22
37904;BME280;23738;50.422;18.758;2023-05-16T04:12:36;97981.42;;;9.83;80.40
37904;BME280;23738;50.422;18.758;2023-05-16T04:15:05;97983.33;;;9.96;80.55
37904;BME280;23738;50.422;18.758;2023-05-16T04:17:32;97981.99;;;10.07;80.77
37904;BME280;23738;50.422;18.758;2023-05-16T04:20:00;97981.33;;;10.17;80.80
37904;BME280;23738;50.422;18.758;2023-05-16T04:22:27;97983.02;;;10.24;80.98
37904;BME280;23738;50.422;18.758;2023-05-16T04:24:55;97986.90;;;10.28;80.96
37904;BME280;23738;50.422;18.758;2023-05-16T04:27:22;97987.32;;;10.39;81.15
37904;BME280;23738;50.422;18.758;2023-05-16T04:29:49;97991.02;;;10.51;81.27
37904;BME280;23738;50.422;18.758;2023-05-16T04:32:25;97989.96;;;10.67;81.66
37904;BME280;23738;50.422;18.758;2023-05-16T04:34:55;97989.96;;;10.85;81.70
37904;BME280;23738;50.422;18.758;2023-05-16T04:37:37;97990.77;;;11.02;81.77
37904;BME280;23738;50.422;18.758;2023-05-16T04:40:07;97993.83;;;11.18;81.91
37904;BME280;23738;50.422;18.758;2023-05-16T04:42:35;98000.86;;;11.31;81.83
37904;BME280;23738;50.422;18.758;2023-05-16T04:45:04;98006.58;;;11.48;82.08
37904;BME280;23738;50.422;18.758;2023-05-16T04:47:32;98006.64;;;11.68;82.03
37904;BME280;23738;50.422;18.758;2023-05-16T04:50:00;98008.77;;;11.85;82.36
37904;BME280;23738;50.422;18.758;2023-05-16T04:52:27;98012.39;;;12.03;82.32
37904;BME280;23738;50.422;18.758;2023-05-16T04:54:55;98019.64;;;12.22;82.24
37904;BME280;23738;50.422;18.758;2023-05-16T04:57:26;98017.60;;;12.38;82.27
37904;BME280;23738;50.422;18.758;2023-05-16T04:59:54;98024.27;;;12.49;82.10
37904;BME280;23738;50.422;18.758;2023-05-16T05:02:21;98025.98;;;12.60;82.04
37904;BME280;23738;50.422;18.758;2023-05-16T05:04:49;98023.55;;;12.74;82.21
37904;BME280;23738;50.422;18.758;2023-05-16T05:07:16;98027.16;;;12.93;82.09
37904;BME280;23738;50.422;18.758;2023-05-16T05:09:44;98032.17;;;13.04;81.95
37904;BME280;23738;50.422;18.758;2023-05-16T05:12:12;98036.06;;;13.13;81.89
37904;BME280;23738;50.422;18.758;2023-05-16T05:14:39;98032.65;;;13.24;81.95
37904;BME280;23738;50.422;18.758;2023-05-16T05:17:06;98033.71;;;13.36;81.82
37904;BME280;23738;50.422;18.758;2023-05-16T05:19:33;98035.42;;;13.49;81.80
37904;BME280;23738;50.422;18.758;2023-05-16T05:22:01;98043.02;;;13.60;81.40
37904;BME280;23738;50.422;18.758;2023-05-16T05:24:28;98050.33;;;13.72;81.41
37904;BME280;23738;50.422;18.758;2023-05-16T05:26:55;98047.05;;;13.86;81.55
37904;BME280;23738;50.422;18.758;2023-05-16T05:29:23;98047.18;;;14.00;81.11
37904;BME280;23738;50.422;18.758;2023-05-16T05:31:50;98046.59;;;14.09;81.25
37904;BME280;23738;50.422;18.758;2023-05-16T05:34:18;98044.90;;;14.27;81.17
37904;BME280;23738;50.422;18.758;2023-05-16T05:36:45;98038.28;;;14.40;80.85
37904;BME280;23738;50.422;18.758;2023-05-16T05:39:12;98041.59;;;14.51;80.52
37904;BME280;23738;50.422;18.758;2023-05-16T05:41:40;98039.42;;;14.57;80.19
37904;BME280;23738;50.422;18.758;2023-05-16T05:44:07;98041.08;;;14.64;80.17
37904;BME280;23738;50.422;18.758;2023-05-16T05:46:34;98039.39;;;14.73;80.17
37904;BME280;23738;50.422;18.758;2023-05-16T05:49:02;98042.10;;;14.84;80.10
37904;BME280;23738;50.422;18.758;2023-05-16T05:51:30;98046.75;;;14.97;80.08
37904;BME280;23738;50.422;18.758;2023-05-16T05:53:57;98044.25;;;15.12;79.82
37904;BME280;23738;50.422;18.758;2023-05-16T05:56:25;98037.81;;;15.19;79.32
37904;BME280;23738;50.422;18.758;2023-05-16T05:58:52;98043.56;;;15.19;79.06
37904;BME280;23738;50.422;18.758;2023-05-16T06:01:20;98040.92;;;15.23;78.82
37904;BME280;23738;50.422;18.758;2023-05-16T06:03:47;98039.30;;;15.31;78.87
37904;BME280;23738;50.422;18.758;2023-05-16T06:06:16;98034.34;;;15.43;78.74
37904;BME280;23738;50.422;18.758;2023-05-16T06:08:43;98033.30;;;15.58;78.69
37904;BME280;23738;50.422;18.758;2023-05-16T06:11:10;98031.91;;;15.74;78.71
37904;BME280;23738;50.422;18.758;2023-05-16T06:13:38;98035.41;;;15.89;78.46
37904;BME280;23738;50.422;18.758;2023-05-16T06:16:05;98045.31;;;16.11;78.40
37904;BME280;23738;50.422;18.758;2023-05-16T06:18:33;98048.53;;;16.30;77.77
37904;BME280;23738;50.422;18.758;2023-05-16T06:21:00;98050.74;;;16.40;77.11
37904;BME280;23738;50.422;18.758;2023-05-16T06:23:27;98044.59;;;16.52;77.29
37904;BME280;23738;50.422;18.758;2023-05-16T06:25:55;98046.17;;;16.67;77.28
37904;BME280;23738;50.422;18.758;2023-05-16T06:28:23;98043.30;;;16.81;76.39
37904;BME280;23738;50.422;18.758;2023-05-16T06:30:50;98044.05;;;16.92;76.39
37904;BME280;23738;50.422;18.758;2023-05-16T06:33:18;98044.63;;;17.01;75.86
37904;BME280;23738;50.422;18.758;2023-05-16T06:35:45;98049.15;;;17.11;75.75
37904;BME280;23738;50.422;18.758;2023-05-16T06:38:14;98049.41;;;17.23;75.33
37904;BME280;23738;50.422;18.758;2023-05-16T06:40:45;98052.41;;;17.37;74.73
37904;BME280;23738;50.422;18.758;2023-05-16T06:43:12;98055.48;;;17.46;74.59
37904;BME280;23738;50.422;18.758;2023-05-16T06:45:39;98056.87;;;17.59;74.62
37904;BME280;23738;50.422;18.758;2023-05-16T06:48:07;98055.54;;;17.69;73.92
37904;BME280;23738;50.422;18.758;2023-05-16T06:50:34;98054.73;;;17.73;73.19
37904;BME280;23738;50.422;18.758;2023-05-16T06:53:02;98052.52;;;17.74;73.18
37904;BME280;23738;50.422;18.758;2023-05-16T06:55:30;98050.86;;;17.82;73.24
37904;BME280;23738;50.422;18.758;2023-05-16T06:57:58;98045.05;;;17.91;73.37
37904;BME280;23738;50.422;18.758;2023-05-16T07:00:25;98037.48;;;18.05;73.28
37904;BME280;23738;50.422;18.758;2023-05-16T07:02:53;98038.21;;;18.22;73.14
37904;BME280;23738;50.422;18.758;2023-05-16T07:05:20;98036.83;;;18.47;73.63
37904;BME280;23738;50.422;18.758;2023-05-16T07:07:47;98039.82;;;18.73;73.19
37904;BME280;23738;50.422;18.758;2023-05-16T07:10:15;98049.44;;;18.90;72.57
37904;BME280;23738;50.422;18.758;2023-05-16T07:12:42;98046.14;;;19.00;72.14
37904;BME280;23738;50.422;18.758;2023-05-16T07:15:11;98047.23;;;19.23;72.64
37904;BME280;23738;50.422;18.758;2023-05-16T07:17:38;98048.42;;;19.42;71.68
37904;BME280;23738;50.422;18.758;2023-05-16T07:20:08;98048.83;;;19.53;71.65
37904;BME280;23738;50.422;18.758;2023-05-16T07:22:39;98047.75;;;19.73;71.45
37904;BME280;23738;50.422;18.758;2023-05-16T07:25:08;98047.61;;;19.92;71.27
37904;BME280;23738;50.422;18.758;2023-05-16T07:27:38;98051.16;;;20.11;71.35
37904;BME280;23738;50.422;18.758;2023-05-16T07:30:09;98058.51;;;20.31;70.00
37904;BME280;23738;50.422;18.758;2023-05-16T07:32:37;98058.20;;;20.25;68.84
37904;BME280;23738;50.422;18.758;2023-05-16T07:35:06;98059.91;;;20.08;67.96
37904;BME280;23738;50.422;18.758;2023-05-16T07:37:35;98060.50;;;20.07;68.83
37904;BME280;23738;50.422;18.758;2023-05-16T07:40:03;98060.80;;;20.17;68.81
37904;BME280;23738;50.422;18.758;2023-05-16T07:42:32;98072.02;;;20.41;69.13
37904;BME280;23738;50.422;18.758;2023-05-16T07:44:59;98074.02;;;20.66;69.01
37904;BME280;23738;50.422;18.758;2023-05-16T07:47:27;98070.76;;;20.85;67.76
37904;BME280;23738;50.422;18.758;2023-05-16T07:49:55;98078.64;;;20.87;67.16
37904;BME280;23738;50.422;18.758;2023-05-16T07:52:22;98079.84;;;20.83;66.70
37904;BME280;23738;50.422;18.758;2023-05-16T07:54:49;98078.61;;;20.92;66.60
37904;BME280;23738;50.422;18.758;2023-05-16T07:57:17;98080.11;;;21.03;66.29
37904;BME280;23738;50.422;18.758;2023-05-16T07:59:44;98087.23;;;21.19;66.26
37904;BME280;23738;50.422;18.758;2023-05-16T08:02:12;98089.59;;;21.44;66.47
37904;BME280;23738;50.422;18.758;2023-05-16T08:04:39;98092.89;;;21.69;65.90
37904;BME280;23738;50.422;18.758;2023-05-16T08:07:07;98093.94;;;21.91;66.37
37904;BME280;23738;50.422;18.758;2023-05-16T08:09:34;98092.83;;;22.18;65.77
37904;BME280;23738;50.422;18.758;2023-05-16T08:12:02;98102.78;;;22.39;64.26
37904;BME280;23738;50.422;18.758;2023-05-16T08:14:30;98111.50;;;22.43;63.49
37904;BME280;23738;50.422;18.758;2023-05-16T08:16:58;98117.64;;;22.48;64.11
37904;BME280;23738;50.422;18.758;2023-05-16T08:19:26;98122.13;;;22.51;64.18
37904;BME280;23738;50.422;18.758;2023-05-16T08:21:54;98136.25;;;22.55;62.91
37904;BME280;23738;50.422;18.758;2023-05-16T08:24:23;98132.02;;;22.57;63.12
37904;BME280;23738;50.422;18.758;2023-05-16T08:26:50;98132.73;;;22.67;62.93
37904;BME280;23738;50.422;18.758;2023-05-16T08:29:18;98135.43;;;22.82;63.02
37904;BME280;23738;50.422;18.758;2023-05-16T08:31:45;98137.98;;;23.03;62.27
37904;BME280;23738;50.422;18.758;2023-05-16T08:34:12;98130.31;;;23.15;61.64
37904;BME280;23738;50.422;18.758;2023-05-16T08:36:40;98132.16;;;23.33;61.33
37904;BME280;23738;50.422;18.758;2023-05-16T08:39:07;98130.14;;;23.38;60.88
37904;BME280;23738;50.422;18.758;2023-05-16T08:41:37;98134.10;;;23.29;60.65
37904;BME280;23738;50.422;18.758;2023-05-16T08:44:06;98132.84;;;23.27;59.96
37904;BME280;23738;50.422;18.758;2023-05-16T08:46:36;98135.94;;;23.21;60.49
37904;BME280;23738;50.422;18.758;2023-05-16T08:49:07;98131.63;;;23.29;60.80
37904;BME280;23738;50.422;18.758;2023-05-16T08:51:34;98122.52;;;23.33;59.51
37904;BME280;23738;50.422;18.758;2023-05-16T08:54:06;98119.28;;;23.40;59.69
37904;BME280;23738;50.422;18.758;2023-05-16T08:56:37;98121.34;;;23.62;59.28
37904;BME280;23738;50.422;18.758;2023-05-16T08:59:07;98126.75;;;23.76;57.75
37904;BME280;23738;50.422;18.758;2023-05-16T09:01:35;98121.05;;;23.84;58.52
37904;BME280;23738;50.422;18.758;2023-05-16T09:04:05;98117.95;;;24.01;58.62
37904;BME280;23738;50.422;18.758;2023-05-16T09:06:32;98120.86;;;24.07;58.64
37904;BME280;23738;50.422;18.758;2023-05-16T09:09:00;98125.48;;;24.18;57.63
37904;BME280;23738;50.422;18.758;2023-05-16T09:11:30;98125.98;;;24.12;57.04
37904;BME280;23738;50.422;18.758;2023-05-16T09:13:57;98125.73;;;24.06;56.74
37904;BME280;23738;50.422;18.758;2023-05-16T09:16:24;98122.77;;;24.03;56.54
37904;BME280;23738;50.422;18.758;2023-05-16T09:18:54;98117.65;;;24.09;57.02
37904;BME280;23738;50.422;18.758;2023-05-16T09:21:25;98117.13;;;24.28;56.61
37904;BME280;23738;50.422;18.758;2023-05-16T09:23:52;98117.83;;;24.31;56.24
37904;BME280;23738;50.422;18.758;2023-05-16T09:26:22;98121.85;;;24.29;56.41
37904;BME280;23738;50.422;18.758;2023-05-16T09:28:53;98124.95;;;24.46;56.85
37904;BME280;23738;50.422;18.758;2023-05-16T09:31:22;98125.29;;;24.67;56.13
37904;BME280;23738;50.422;18.758;2023-05-16T09:33:52;98124.43;;;24.74;55.28
37904;BME280;23738;50.422;18.758;2023-05-16T09:36:19;98122.16;;;24.81;54.83
37904;BME280;23738;50.422;18.758;2023-05-16T09:38:47;98126.23;;;24.84;54.46
37904;BME280;23738;50.422;18.758;2023-05-16T09:41:15;98124.27;;;24.83;54.46
37904;BME280;23738;50.422;18.758;2023-05-16T09:43:43;98126.79;;;24.87;54.47
37904;BME280;23738;50.422;18.758;2023-05-16T09:46:13;98128.15;;;25.05;54.18
37904;BME280;23738;50.422;18.758;2023-05-16T09:48:41;98139.70;;;25.16;53.81
37904;BME280;23738;50.422;18.758;2023-05-16T09:51:12;98138.81;;;25.06;53.54
37904;BME280;23738;50.422;18.758;2023-05-16T09:53:40;98134.23;;;25.01;52.91
37904;BME280;23738;50.422;18.758;2023-05-16T09:56:10;98134.84;;;25.06;53.39
37904;BME280;23738;50.422;18.758;2023-05-16T09:58:39;98135.37;;;25.06;52.11
37904;BME280;23738;50.422;18.758;2023-05-16T10:01:07;98127.52;;;24.94;52.16
37904;BME280;23738;50.422;18.758;2023-05-16T10:03:36;98128.60;;;24.91;52.31
37904;BME280;23738;50.422;18.758;2023-05-16T10:06:05;98134.29;;;24.87;51.46
37904;BME280;23738;50.422;18.758;2023-05-16T10:08:34;98132.90;;;24.81;52.11
37904;BME280;23738;50.422;18.758;2023-05-16T10:11:03;98129.73;;;24.93;52.45
37904;BME280;23738;50.422;18.758;2023-05-16T10:13:32;98127.05;;;25.10;52.42
37904;BME280;23738;50.422;18.758;2023-05-16T10:16:05;98122.84;;;25.26;51.43
37904;BME280;23738;50.422;18.758;2023-05-16T10:18:35;98118.41;;;25.32;51.54
37904;BME280;23738;50.422;18.758;2023-05-16T10:21:06;98112.46;;;25.39;50.87
37904;BME280;23738;50.422;18.758;2023-05-16T10:23:34;98115.89;;;25.41;50.89
37904;BME280;23738;50.422;18.758;2023-05-16T10:26:03;98118.09;;;25.46;51.14
37904;BME280;23738;50.422;18.758;2023-05-16T10:28:32;98115.63;;;25.50;50.80
37904;BME280;23738;50.422;18.758;2023-05-16T10:31:00;98118.49;;;25.45;50.99
37904;BME280;23738;50.422;18.758;2023-05-16T10:33:28;98114.02;;;25.40;50.58
37904;BME280;23738;50.422;18.758;2023-05-16T10:35:56;98118.13;;;25.38;50.77
37904;BME280;23738;50.422;18.758;2023-05-16T10:38:24;98114.36;;;25.44;50.57
37904;BME280;23738;50.422;18.758;2023-05-16T10:40:52;98114.31;;;25.48;50.70
37904;BME280;23738;50.422;18.758;2023-05-16T10:43:24;98114.45;;;25.49;50.04
37904;BME280;23738;50.422;18.758;2023-05-16T10:45:55;98121.18;;;25.46;50.08
37904;BME280;23738;50.422;18.758;2023-05-16T10:48:29;98118.26;;;25.39;49.74
37904;BME280;23738;50.422;18.758;2023-05-16T10:50:56;98117.48;;;25.21;49.72
37904;BME280;23738;50.422;18.758;2023-05-16T10:53:31;98116.53;;;25.10;49.87
37904;BME280;23738;50.422;18.758;2023-05-16T10:56:08;98118.09;;;24.92;49.96
37904;BME280;23738;50.422;18.758;2023-05-16T10:58:42;98117.31;;;24.84;50.13
37904;BME280;23738;50.422;18.758;2023-05-16T11:01:21;98116.00;;;24.83;49.85
37904;BME280;23738;50.422;18.758;2023-05-16T11:06:51;98113.37;;;24.84;50.18
37904;BME280;23738;50.422;18.758;2023-05-16T11:09:21;98116.95;;;24.82;49.50
37904;BME280;23738;50.422;18.758;2023-05-16T11:11:55;98113.73;;;24.71;49.22
37904;BME280;23738;50.422;18.758;2023-05-16T11:14:25;98113.38;;;24.61;49.29
37904;BME280;23738;50.422;18.758;2023-05-16T11:17:00;98110.30;;;24.50;49.19
37904;BME280;23738;50.422;18.758;2023-05-16T11:19:30;98110.20;;;24.40;49.36
37904;BME280;23738;50.422;18.758;2023-05-16T11:22:22;98101.84;;;24.26;48.95
37904;BME280;23738;50.422;18.758;2023-05-16T11:24:51;98102.54;;;24.06;49.04
37904;BME280;23738;50.422;18.758;2023-05-16T11:27:22;98094.67;;;23.93;49.09
37904;BME280;23738;50.422;18.758;2023-05-16T11:29:54;98093.78;;;23.77;48.92
37904;BME280;23738;50.422;18.758;2023-05-16T11:32:23;98094.47;;;23.60;49.18
37904;BME280;23738;50.422;18.758;2023-05-16T11:34:50;98091.39;;;23.46;49.42
37904;BME280;23738;50.422;18.758;2023-05-16T11:37:19;98087.80;;;23.37;49.51
37904;BME280;23738;50.422;18.758;2023-05-16T11:39:46;98085.14;;;23.31;49.74
37904;BME280;23738;50.422;18.758;2023-05-16T11:42:14;98088.00;;;23.24;49.43
37904;BME280;23738;50.422;18.758;2023-05-16T11:44:43;98084.44;;;23.16;49.58
37904;BME280;23738;50.422;18.758;2023-05-16T11:47:17;98090.48;;;23.09;49.46
37904;BME280;23738;50.422;18.758;2023-05-16T11:49:44;98089.48;;;23.03;49.87
37904;BME280;23738;50.422;18.758;2023-05-16T11:52:12;98090.83;;;23.02;49.64
37904;BME280;23738;50.422;18.758;2023-05-16T11:54:40;98090.05;;;22.97;49.58
37904;BME280;23738;50.422;18.758;2023-05-16T11:57:08;98087.34;;;22.98;49.57
37904;BME280;23738;50.422;18.758;2023-05-16T11:59:36;98091.45;;;23.05;49.90
37904;BME280;23738;50.422;18.758;2023-05-16T12:02:04;98096.45;;;23.17;50.31
37904;BME280;23738;50.422;18.758;2023-05-16T12:04:32;98096.58;;;23.26;49.94
37904;BME280;23738;50.422;18.758;2023-05-16T12:07:00;98097.06;;;23.23;49.77
37904;BME280;23738;50.422;18.758;2023-05-16T12:09:27;98101.07;;;23.26;49.92
37904;BME280;23738;50.422;18.758;2023-05-16T12:12:11;98095.11;;;23.27;49.70
37904;BME280;23738;50.422;18.758;2023-05-16T12:14:38;98089.17;;;23.28;49.78
37904;BME280;23738;50.422;18.758;2023-05-16T12:17:06;98087.98;;;23.32;49.58
37904;BME280;23738;50.422;18.758;2023-05-16T12:19:33;98087.68;;;23.34;49.65
37904;BME280;23738;50.422;18.758;2023-05-16T12:22:01;98091.10;;;23.39;49.80
37904;BME280;23738;50.422;18.758;2023-05-16T12:24:31;98086.94;;;23.40;49.70
37904;BME280;23738;50.422;18.758;2023-05-16T12:26:58;98086.91;;;23.41;49.64
37904;BME280;23738;50.422;18.758;2023-05-16T12:29:30;98086.48;;;23.42;49.33
37904;BME280;23738;50.422;18.758;2023-05-16T12:31:59;98085.58;;;23.34;48.92
37904;BME280;23738;50.422;18.758;2023-05-16T12:34:28;98081.56;;;23.18;49.26
37904;BME280;23738;50.422;18.758;2023-05-16T12:37:03;98085.92;;;23.14;49.52
37904;BME280;23738;50.422;18.758;2023-05-16T12:39:37;98081.20;;;23.09;49.51
37904;BME280;23738;50.422;18.758;2023-05-16T12:42:06;98079.33;;;23.08;49.52
37904;BME280;23738;50.422;18.758;2023-05-16T12:44:35;98076.30;;;23.09;49.54
37904;BME280;23738;50.422;18.758;2023-05-16T12:47:23;98076.13;;;23.06;49.34
37904;BME280;23738;50.422;18.758;2023-05-16T12:49:50;98070.88;;;23.01;49.56
37904;BME280;23738;50.422;18.758;2023-05-16T12:52:47;98069.61;;;23.03;49.52
37904;BME280;23738;50.422;18.758;2023-05-16T12:55:16;98068.32;;;22.99;49.38
37904;BME280;23738;50.422;18.758;2023-05-16T12:57:45;98066.90;;;22.92;49.08
37904;BME280;23738;50.422;18.758;2023-05-16T13:00:17;98066.55;;;22.84;48.93
37904;BME280;23738;50.422;18.758;2023-05-16T13:02:45;98065.52;;;22.79;49.08
37904;BME280;23738;50.422;18.758;2023-05-16T13:05:13;98057.25;;;22.71;48.66
37904;BME280;23738;50.422;18.758;2023-05-16T13:07:41;98059.10;;;22.65;48.66